createdAt,value
2022-09-30T00:01:39.669Z,37.58
2022-09-30T00:04:09.192Z,39.78
2022-09-30T00:06:37.131Z,41.05
2022-09-30T00:09:06.108Z,41.08
2022-09-30T00:11:38.610Z,42.20
2022-09-30T00:16:37.658Z,41.80
2022-09-30T00:19:06.100Z,39.53
2022-09-30T00:21:34.814Z,47.60
2022-09-30T00:24:03.650Z,40.42
2022-09-30T00:26:32.651Z,48.08
2022-09-30T00:29:03.099Z,41.70
2022-09-30T00:31:33.769Z,40.60
2022-09-30T00:34:08.312Z,39.65
2022-09-30T00:36:39.801Z,38.65
2022-09-30T00:39:09.044Z,39.13
2022-09-30T00:41:37.502Z,35.65
2022-09-30T00:44:38.884Z,35.10
2022-09-30T00:47:28.488Z,42.00
2022-09-30T00:50:00.749Z,37.42
2022-09-30T00:52:29.936Z,35.58
2022-09-30T00:55:00.607Z,37.95
2022-09-30T00:57:29.136Z,40.70
2022-09-30T00:59:57.333Z,39.97
2022-09-30T01:02:26.488Z,37.10
2022-09-30T01:04:55.140Z,37.85
2022-09-30T01:07:24.740Z,41.50
2022-09-30T01:09:53.378Z,39.20
2022-09-30T01:12:25.159Z,38.38
2022-09-30T01:14:55.853Z,38.28
2022-09-30T01:17:37.887Z,38.88
2022-09-30T01:23:10.271Z,38.72
2022-09-30T01:26:03.863Z,34.28
2022-09-30T01:29:06.929Z,32.08
2022-09-30T01:31:51.268Z,35.17
2022-09-30T01:34:29.137Z,35.15
2022-09-30T01:37:08.929Z,36.75
2022-09-30T01:39:48.476Z,34.55
2022-09-30T01:42:26.756Z,32.45
2022-09-30T01:45:03.649Z,37.00
2022-09-30T01:47:38.166Z,32.25
2022-09-30T01:50:10.852Z,33.80
2022-09-30T01:52:46.102Z,30.42
2022-09-30T01:55:19.821Z,33.67
2022-09-30T01:57:56.565Z,38.60
2022-09-30T02:00:24.605Z,33.75
2022-09-30T02:02:57.806Z,32.13
2022-09-30T02:05:31.929Z,34.17
2022-09-30T02:08:03.884Z,28.48
2022-09-30T02:10:36.276Z,32.22
2022-09-30T02:13:10.712Z,34.92
2022-09-30T02:15:42.078Z,35.08
2022-09-30T02:18:17.085Z,37.70
2022-09-30T02:20:48.267Z,41.85
2022-09-30T02:23:21.059Z,45.03
2022-09-30T02:25:55.690Z,46.35
2022-09-30T02:28:28.374Z,52.20
2022-09-30T02:30:59.375Z,48.92
2022-09-30T02:33:34.449Z,52.15
2022-09-30T02:36:08.017Z,46.45
2022-09-30T02:38:40.890Z,55.58
2022-09-30T02:41:13.206Z,58.25
2022-09-30T02:43:42.717Z,54.80
2022-09-30T02:46:19.850Z,62.83
2022-09-30T02:48:57.924Z,52.17
2022-09-30T02:51:37.569Z,56.30
2022-09-30T02:54:16.206Z,51.60
2022-09-30T02:56:52.382Z,60.38
2022-09-30T02:59:21.137Z,62.10
2022-09-30T03:01:49.582Z,60.42
2022-09-30T03:04:22.795Z,60.58
2022-09-30T03:06:51.250Z,62.25
2022-09-30T03:09:19.373Z,67.38
2022-09-30T03:11:48.738Z,63.72
2022-09-30T03:14:36.892Z,58.50
2022-09-30T03:17:41.373Z,63.70
2022-09-30T03:20:35.922Z,56.83
2022-09-30T03:23:36.265Z,62.42
2022-09-30T03:26:15.057Z,58.63
2022-09-30T03:28:49.801Z,61.17
2022-09-30T03:31:28.396Z,56.55
2022-09-30T03:34:03.587Z,59.83
2022-09-30T03:36:40.409Z,57.83
2022-09-30T03:39:17.806Z,70.45
2022-09-30T03:41:52.249Z,61.25
2022-09-30T03:44:25.829Z,63.10
2022-09-30T03:46:57.282Z,58.08
2022-09-30T03:49:29.529Z,59.92
2022-09-30T03:52:00.678Z,62.42
2022-09-30T03:54:29.413Z,63.33
2022-09-30T03:56:57.109Z,64.40
2022-09-30T03:59:27.902Z,62.28
2022-09-30T04:01:57.010Z,57.72
2022-09-30T04:04:25.817Z,57.50
2022-09-30T04:06:53.863Z,65.10
2022-09-30T04:09:23.101Z,60.53
2022-09-30T04:11:51.317Z,58.40
2022-09-30T04:14:19.329Z,65.88
2022-09-30T04:16:50.687Z,64.38
2022-09-30T04:19:22.194Z,72.95
2022-09-30T04:21:52.448Z,74.85
2022-09-30T04:24:20.220Z,70.10
2022-09-30T04:26:50.392Z,68.75
2022-09-30T04:29:18.742Z,81.40
2022-09-30T04:31:46.642Z,77.03
2022-09-30T04:34:15.090Z,74.45
2022-09-30T04:36:43.628Z,92.78
2022-09-30T04:39:11.724Z,84.47
2022-09-30T04:41:40.741Z,99.32
2022-09-30T04:44:10.557Z,84.50
2022-09-30T04:46:38.318Z,77.55
2022-09-30T04:49:09.268Z,89.88
2022-09-30T04:51:38.367Z,100.40
2022-09-30T04:54:06.172Z,88.47
2022-09-30T04:56:34.430Z,89.88
2022-09-30T04:59:02.151Z,97.95
2022-09-30T05:01:31.229Z,95.78
2022-09-30T05:03:59.430Z,89.47
2022-09-30T05:06:27.377Z,99.28
2022-09-30T05:08:55.095Z,113.88
2022-09-30T05:11:23.950Z,97.13
2022-09-30T05:13:51.928Z,93.57
2022-09-30T05:16:19.915Z,102.97
2022-09-30T05:18:49.552Z,93.22
2022-09-30T05:21:20.535Z,99.57
2022-09-30T05:23:48.757Z,81.32
2022-09-30T05:26:17.094Z,80.18
2022-09-30T05:28:45.369Z,74.75
2022-09-30T05:31:13.655Z,89.63
2022-09-30T05:33:42.273Z,85.05
2022-09-30T05:36:15.474Z,82.32
2022-09-30T05:38:43.980Z,78.05
2022-09-30T05:41:13.441Z,73.53
2022-09-30T05:43:42.104Z,78.32
2022-09-30T05:46:10.409Z,76.43
2022-09-30T05:48:38.200Z,75.68
2022-09-30T05:51:07.458Z,93.60
2022-09-30T05:53:39.536Z,72.15
2022-09-30T05:56:09.261Z,76.25
2022-09-30T05:58:40.566Z,75.15
2022-09-30T06:01:13.446Z,73.25
2022-09-30T06:03:42.348Z,75.15
2022-09-30T06:06:10.925Z,70.75
2022-09-30T06:08:41.340Z,71.00
2022-09-30T06:11:12.973Z,58.83
2022-09-30T06:13:41.742Z,69.47
2022-09-30T06:16:11.608Z,68.55
2022-09-30T06:18:41.268Z,69.78
2022-09-30T06:21:11.304Z,68.05
2022-09-30T06:23:41.042Z,60.90
2022-09-30T06:26:11.623Z,62.40
2022-09-30T06:28:40.189Z,64.15
2022-09-30T06:31:08.544Z,69.43
2022-09-30T06:33:36.681Z,64.97
2022-09-30T06:36:06.127Z,60.05
2022-09-30T06:38:37.081Z,63.30
2022-09-30T06:41:08.219Z,58.07
2022-09-30T06:43:39.282Z,56.15
2022-09-30T06:46:18.886Z,61.13
2022-09-30T06:48:49.809Z,64.47
2022-09-30T06:51:17.876Z,60.40
2022-09-30T06:53:48.102Z,61.95
2022-09-30T07:10:23.118Z,65.80
2022-09-30T07:13:14.101Z,49.28
2022-09-30T07:15:42.887Z,55.97
2022-09-30T07:18:10.925Z,50.50
2022-09-30T07:20:38.618Z,56.30
2022-09-30T07:23:06.514Z,52.50
2022-09-30T07:25:36.054Z,52.75
2022-09-30T07:28:03.824Z,47.22
2022-09-30T07:30:31.816Z,44.17
2022-09-30T07:32:59.860Z,50.53
2022-09-30T07:35:27.592Z,49.75
2022-09-30T07:37:59.863Z,57.38
2022-09-30T07:40:43.859Z,48.72
2022-09-30T07:43:17.068Z,47.47
2022-09-30T07:45:59.357Z,58.28
2022-09-30T09:05:00.319Z,65.75
2022-09-30T09:07:41.725Z,57.60
2022-09-30T09:10:25.100Z,64.75
2022-09-30T09:13:02.214Z,57.53
2022-09-30T09:15:43.213Z,67.50
2022-09-30T09:18:40.228Z,55.20
2022-09-30T09:21:23.674Z,48.72
2022-09-30T09:23:54.064Z,56.72
2022-09-30T09:26:21.857Z,57.65
2022-09-30T09:29:07.426Z,45.40
2022-09-30T09:31:35.954Z,43.55
2022-09-30T09:34:11.098Z,40.97
2022-09-30T09:36:53.613Z,51.15
2022-09-30T09:39:38.528Z,43.75
2022-09-30T09:42:20.970Z,44.20
2022-09-30T09:44:57.117Z,43.65
2022-09-30T09:47:25.231Z,41.63
2022-09-30T09:49:58.405Z,44.53
2022-09-30T09:52:52.069Z,42.05
2022-09-30T09:55:23.134Z,50.50
2022-09-30T09:58:06.245Z,97.75
2022-09-30T10:00:51.909Z,123.55
2022-09-30T10:03:23.524Z,55.83
2022-09-30T10:06:12.897Z,42.47
2022-09-30T10:08:54.825Z,56.58
2022-09-30T10:11:24.806Z,107.45
2022-09-30T10:13:57.239Z,112.97
2022-09-30T10:16:29.367Z,82.35
2022-09-30T10:18:58.388Z,59.65
2022-09-30T10:21:28.286Z,58.00
2022-09-30T10:24:20.282Z,41.70
2022-09-30T10:26:49.171Z,45.60
2022-09-30T10:29:27.795Z,72.70
2022-09-30T10:31:59.751Z,73.05
2022-09-30T10:37:02.285Z,74.03
2022-09-30T10:39:34.521Z,114.10
2022-09-30T10:42:07.247Z,53.67
2022-09-30T10:44:43.670Z,52.00
2022-09-30T10:47:16.322Z,57.40
2022-09-30T10:49:47.278Z,34.60
2022-09-30T10:52:20.066Z,53.55
2022-09-30T10:54:52.283Z,46.22
2022-09-30T10:57:23.421Z,45.15
2022-09-30T10:59:53.421Z,88.65
2022-09-30T11:02:29.921Z,57.72
2022-09-30T11:05:08.584Z,27.20
2022-09-30T11:07:45.907Z,38.53
2022-09-30T11:10:28.577Z,30.63
2022-09-30T11:13:05.595Z,24.05
2022-09-30T11:15:43.415Z,23.40
2022-09-30T11:18:20.278Z,39.75
2022-09-30T11:20:55.223Z,41.47
2022-09-30T11:23:29.569Z,31.88
2022-09-30T11:26:06.145Z,36.03
2022-09-30T11:28:54.512Z,21.00
2022-09-30T11:31:31.201Z,22.38
2022-09-30T11:34:14.681Z,20.35
2022-09-30T11:36:51.786Z,21.35
2022-09-30T11:39:37.482Z,19.02
2022-09-30T11:42:15.210Z,17.38
2022-09-30T11:44:45.815Z,18.52
2022-09-30T11:47:47.095Z,19.92
2022-09-30T11:50:33.977Z,16.50
2022-09-30T11:53:13.157Z,18.13
2022-09-30T11:55:57.470Z,13.48
2022-09-30T11:58:42.172Z,12.50
2022-09-30T12:01:21.718Z,15.25
2022-09-30T12:03:58.023Z,20.92
2022-09-30T12:06:33.027Z,26.70
2022-09-30T12:09:07.638Z,26.38
2022-09-30T12:11:43.353Z,34.35
2022-09-30T12:14:20.447Z,32.10
2022-09-30T12:16:51.184Z,33.28
2022-09-30T12:19:25.777Z,34.58
2022-09-30T12:21:59.960Z,32.33
2022-09-30T12:24:33.816Z,25.85
2022-09-30T12:27:02.642Z,36.80
2022-09-30T12:29:53.848Z,41.00
2022-09-30T12:32:56.528Z,30.92
2022-09-30T12:35:43.459Z,28.75
2022-09-30T12:38:30.672Z,32.45
2022-09-30T14:18:34.693Z,18.70
2022-09-30T14:21:21.382Z,19.35
2022-09-30T14:23:58.249Z,20.60
2022-09-30T14:26:42.641Z,23.05
2022-09-30T14:29:21.053Z,21.70
2022-09-30T14:31:49.528Z,19.00
2022-09-30T14:34:20.647Z,23.02
2022-09-30T14:36:50.609Z,19.45
2022-09-30T14:39:22.202Z,24.45
2022-09-30T14:41:52.724Z,21.73
2022-09-30T14:44:22.617Z,29.77
2022-09-30T14:46:52.569Z,17.88
2022-09-30T14:49:29.886Z,20.30
2022-09-30T14:52:03.111Z,22.40
2022-09-30T14:54:32.874Z,19.08
2022-09-30T14:57:02.916Z,20.27
2022-09-30T14:59:33.218Z,18.70
2022-09-30T15:02:04.394Z,24.08
2022-09-30T15:04:35.371Z,22.10
2022-09-30T15:07:07.183Z,25.48
2022-09-30T15:09:37.574Z,24.20
2022-09-30T15:12:07.400Z,21.92
2022-09-30T15:14:35.218Z,22.48
2022-09-30T15:17:06.168Z,20.90
2022-09-30T15:19:43.087Z,28.38
2022-09-30T15:22:15.005Z,23.15
2022-09-30T15:24:44.301Z,24.30
2022-09-30T15:27:20.648Z,35.25
2022-09-30T15:29:56.179Z,21.38
2022-09-30T15:32:25.553Z,20.67
2022-09-30T15:34:54.268Z,21.95
2022-09-30T15:37:25.425Z,18.42
2022-09-30T15:40:07.906Z,18.73
2022-09-30T15:42:44.253Z,20.50
2022-09-30T15:45:34.550Z,21.08
2022-09-30T15:48:07.042Z,21.58
2022-09-30T15:50:40.794Z,22.67
2022-09-30T15:53:24.227Z,27.35
2022-09-30T15:55:55.563Z,28.10
2022-09-30T15:58:38.900Z,29.85
2022-09-30T16:01:14.787Z,29.30
2022-09-30T16:03:53.176Z,29.60
2022-09-30T16:06:26.243Z,27.92
2022-09-30T16:09:01.550Z,30.13
2022-09-30T16:11:34.771Z,36.30
2022-09-30T16:14:06.081Z,29.80
2022-09-30T16:16:36.613Z,32.58
2022-09-30T16:19:06.436Z,33.33
2022-09-30T16:21:50.496Z,29.50
2022-09-30T16:24:47.502Z,35.30
2022-09-30T16:27:23.534Z,42.53
2022-09-30T16:29:51.757Z,40.47
2022-09-30T16:32:19.825Z,44.85
2022-09-30T16:34:47.733Z,42.28
2022-09-30T16:37:19.600Z,36.42
2022-09-30T16:39:50.067Z,39.50
2022-09-30T16:42:19.469Z,36.17
2022-09-30T16:44:47.347Z,37.70
2022-09-30T16:47:17.288Z,38.38
2022-09-30T16:49:47.244Z,40.85
2022-09-30T16:52:15.754Z,40.03
2022-09-30T16:54:43.764Z,45.75
2022-09-30T16:57:17.045Z,45.38
2022-09-30T16:59:44.809Z,48.05
2022-09-30T17:02:16.260Z,47.50
2022-09-30T17:04:45.425Z,61.67
2022-09-30T17:07:14.902Z,54.15
2022-09-30T17:09:44.114Z,63.70
2022-09-30T17:12:13.202Z,62.50
2022-09-30T17:14:43.752Z,63.15
2022-09-30T17:17:13.734Z,64.28
2022-09-30T17:19:42.413Z,65.22
2022-09-30T17:22:10.193Z,64.05
2022-09-30T17:24:37.973Z,62.00
2022-09-30T17:27:07.413Z,59.90
2022-09-30T17:29:41.684Z,58.47
2022-09-30T17:32:11.861Z,97.93
2022-09-30T17:34:40.300Z,60.47
2022-09-30T17:39:41.908Z,83.05
2022-09-30T17:42:31.571Z,81.85
2022-09-30T17:44:59.801Z,73.97
2022-09-30T17:47:28.894Z,80.40
2022-09-30T17:49:56.661Z,76.43
2022-09-30T17:52:25.596Z,77.45
2022-09-30T17:54:53.587Z,67.30
2022-09-30T17:57:21.881Z,79.47
2022-09-30T17:59:50.208Z,67.72
2022-09-30T18:02:18.473Z,65.68
2022-09-30T18:04:47.720Z,64.32
2022-09-30T18:07:16.114Z,63.47
2022-09-30T18:09:43.865Z,63.45
2022-09-30T18:12:12.252Z,66.13
2022-09-30T18:14:40.319Z,65.63
2022-09-30T18:17:08.159Z,55.88
2022-09-30T18:19:36.378Z,55.17
2022-09-30T18:22:05.784Z,56.90
2022-09-30T18:24:51.538Z,68.25
2022-09-30T18:27:22.457Z,73.18
2022-09-30T18:29:50.237Z,62.65
2022-09-30T18:32:18.578Z,57.20
2022-09-30T18:34:47.030Z,47.78
2022-09-30T18:37:16.158Z,52.13
2022-09-30T18:39:44.021Z,49.42
2022-09-30T18:42:12.106Z,52.67
2022-09-30T18:44:40.126Z,53.42
2022-09-30T18:47:07.947Z,51.97
2022-09-30T18:49:36.175Z,54.38
2022-09-30T18:52:04.578Z,54.80
2022-09-30T18:54:33.930Z,55.88
2022-09-30T18:57:02.121Z,56.45
2022-09-30T18:59:29.920Z,61.53
2022-09-30T19:01:59.597Z,56.13
2022-09-30T19:04:27.768Z,56.80
2022-09-30T19:06:55.534Z,58.13
2022-09-30T19:09:26.376Z,65.75
2022-09-30T19:11:55.903Z,59.17
2022-09-30T19:14:24.746Z,59.15
2022-09-30T19:16:53.602Z,61.85
2022-09-30T19:19:23.174Z,63.58
2022-09-30T19:21:51.122Z,67.97
2022-09-30T19:24:20.382Z,68.15
2022-09-30T19:26:50.384Z,69.63
2022-09-30T19:29:19.565Z,63.67
2022-09-30T19:31:47.610Z,69.35
2022-09-30T19:34:26.004Z,68.30
2022-09-30T19:36:59.918Z,64.10
2022-09-30T19:39:39.602Z,74.97
2022-09-30T19:42:10.191Z,82.78
2022-09-30T19:44:39.656Z,78.93
2022-09-30T19:47:07.397Z,89.18
2022-09-30T19:49:36.082Z,78.57
2022-09-30T19:52:12.361Z,83.32
2022-09-30T19:54:45.177Z,69.13
2022-09-30T19:57:13.318Z,76.15
2022-09-30T19:59:42.437Z,85.30
2022-09-30T20:02:10.942Z,77.18
2022-09-30T20:04:40.493Z,89.10
2022-09-30T20:07:08.236Z,86.97
2022-09-30T20:09:36.146Z,81.60
2022-09-30T20:12:04.167Z,84.68
2022-09-30T20:14:49.467Z,95.90
2022-09-30T20:17:19.117Z,94.95
2022-09-30T20:20:06.925Z,79.22
2022-09-30T20:22:35.229Z,68.93
2022-09-30T20:25:03.460Z,79.47
2022-09-30T20:27:32.923Z,71.32
2022-09-30T20:30:01.208Z,68.10
2022-09-30T20:32:31.136Z,61.13
2022-09-30T20:34:59.044Z,62.40
2022-09-30T20:37:27.168Z,59.80
2022-09-30T20:39:55.816Z,59.97
2022-09-30T20:42:25.542Z,66.90
2022-09-30T20:44:55.281Z,57.80
2022-09-30T20:47:23.597Z,61.78
2022-09-30T20:49:52.689Z,59.40
2022-09-30T20:52:21.412Z,63.90
2022-09-30T20:54:49.492Z,69.07
2022-09-30T20:57:17.236Z,67.45
2022-09-30T20:59:46.563Z,72.65
2022-09-30T21:02:14.805Z,86.13
2022-09-30T21:04:43.134Z,81.90
2022-09-30T21:07:12.596Z,90.13
2022-09-30T21:09:40.744Z,86.88
2022-09-30T21:12:14.311Z,87.95
2022-09-30T21:14:42.635Z,96.75
2022-09-30T21:17:10.757Z,84.60
2022-09-30T21:19:39.954Z,89.43
2022-09-30T21:22:08.348Z,89.80
2022-09-30T21:24:37.451Z,82.82
2022-09-30T21:27:05.987Z,91.75
2022-09-30T21:29:34.681Z,70.95
2022-09-30T21:32:02.862Z,78.50
2022-09-30T21:34:31.238Z,76.47
2022-09-30T21:36:59.557Z,66.15
2022-09-30T21:39:27.427Z,71.88
2022-09-30T21:41:56.841Z,74.65
2022-09-30T21:44:25.616Z,79.95
2022-09-30T21:46:53.397Z,70.40
2022-09-30T21:49:23.887Z,76.18
2022-09-30T21:51:53.356Z,63.83
2022-09-30T21:54:21.124Z,61.95
2022-09-30T21:56:49.331Z,77.03
2022-09-30T21:59:18.738Z,64.05
2022-09-30T22:01:47.077Z,70.88
2022-09-30T22:04:14.804Z,81.38
2022-09-30T22:06:44.429Z,66.90
2022-09-30T22:09:12.238Z,64.57
2022-09-30T22:11:41.495Z,69.97
2022-09-30T22:14:11.085Z,70.07
2022-09-30T22:16:40.495Z,64.15
2022-09-30T22:19:09.944Z,68.00
2022-09-30T22:21:38.720Z,82.70
2022-09-30T22:24:09.121Z,70.70
2022-09-30T22:26:37.830Z,76.63
2022-09-30T22:29:08.034Z,80.53
2022-09-30T22:31:36.052Z,66.10
2022-09-30T22:34:24.646Z,74.22
2022-09-30T22:37:10.932Z,64.10
2022-09-30T22:39:39.002Z,64.75
2022-09-30T22:42:07.434Z,71.45
2022-09-30T22:44:36.939Z,74.70
2022-09-30T22:47:05.738Z,63.67
2022-09-30T22:49:35.209Z,75.22
2022-09-30T22:52:03.653Z,75.82
2022-09-30T22:54:31.986Z,82.45
2022-09-30T22:57:00.075Z,89.88
2022-09-30T22:59:28.999Z,107.35
2022-09-30T23:01:58.023Z,146.77
2022-09-30T23:04:26.618Z,101.43
2022-09-30T23:06:56.593Z,88.13
2022-09-30T23:09:25.225Z,75.72
2022-09-30T23:11:55.160Z,73.95
2022-09-30T23:14:23.562Z,215.15
2022-09-30T23:16:52.296Z,453.17
2022-09-30T23:19:20.907Z,426.90
2022-09-30T23:21:48.796Z,333.52
2022-09-30T23:24:18.089Z,329.00
2022-09-30T23:26:46.895Z,112.65
2022-09-30T23:29:15.808Z,334.38
2022-09-30T23:31:43.840Z,87.50
2022-09-30T23:34:12.004Z,63.45
2022-09-30T23:36:39.912Z,60.35
2022-09-30T23:39:12.509Z,70.00
2022-09-30T23:41:43.096Z,70.20
2022-09-30T23:44:11.100Z,63.58
2022-09-30T23:46:38.917Z,67.00
2022-09-30T23:49:06.821Z,111.72
2022-09-30T23:51:35.044Z,270.17
2022-09-30T23:54:03.269Z,122.72
2022-09-30T23:56:32.089Z,61.92
2022-09-30T23:59:01.401Z,64.47
